createdAt,value
2023-04-10T00:02:24.413Z,27.00
2023-04-10T00:04:51.357Z,27.14
2023-04-10T00:07:18.246Z,25.16
2023-04-10T00:09:44.910Z,26.06
2023-04-10T00:12:11.697Z,27.24
2023-04-10T00:14:38.470Z,26.17
2023-04-10T00:17:05.259Z,25.09
2023-04-10T00:19:31.871Z,25.59
2023-04-10T00:21:58.528Z,26.11
2023-04-10T00:24:25.305Z,23.91
2023-04-10T00:26:52.137Z,24.96
2023-04-10T00:29:18.919Z,24.34
2023-04-10T00:31:45.569Z,24.06
2023-04-10T00:34:13.981Z,24.36
2023-04-10T00:36:40.666Z,24.21
2023-04-10T00:39:08.660Z,24.08
2023-04-10T00:41:35.343Z,24.12
2023-04-10T00:44:02.124Z,24.29
2023-04-10T00:46:30.869Z,23.18
2023-04-10T00:48:57.665Z,23.34
2023-04-10T00:51:24.462Z,22.98
2023-04-10T00:53:52.209Z,21.78
2023-04-10T00:56:20.770Z,21.49
2023-04-10T00:58:48.081Z,21.44
2023-04-10T01:01:14.763Z,21.20
2023-04-10T01:03:43.515Z,19.22
2023-04-10T01:06:19.384Z,18.44
2023-04-10T01:09:00.674Z,18.69
2023-04-10T01:11:51.209Z,17.94
2023-04-10T01:14:27.827Z,17.97
2023-04-10T01:17:04.037Z,17.32
2023-04-10T01:19:36.611Z,17.40
2023-04-10T01:22:05.352Z,17.05
2023-04-10T01:24:31.900Z,16.76
2023-04-10T01:27:11.270Z,16.71
2023-04-10T01:29:46.400Z,16.83
2023-04-10T01:32:22.040Z,16.56
2023-04-10T01:34:52.189Z,16.18
2023-04-10T01:37:29.419Z,15.97
2023-04-10T01:40:08.702Z,15.92
2023-04-10T01:42:42.360Z,15.86
2023-04-10T01:45:19.829Z,15.50
2023-04-10T01:47:48.166Z,15.27
2023-04-10T01:50:16.365Z,15.15
2023-04-10T01:52:45.221Z,14.89
2023-04-10T01:55:12.193Z,14.85
2023-04-10T01:57:38.768Z,14.96
2023-04-10T02:00:06.170Z,14.41
2023-04-10T02:02:34.355Z,14.77
2023-04-10T02:05:01.360Z,14.51
2023-04-10T02:07:36.692Z,14.57
2023-04-10T02:10:26.141Z,15.02
2023-04-10T02:12:58.844Z,14.29
2023-04-10T02:15:30.363Z,14.46
2023-04-10T02:17:59.857Z,14.33
2023-04-10T02:20:26.889Z,13.86
2023-04-10T02:22:54.479Z,14.12
2023-04-10T02:25:21.105Z,14.25
2023-04-10T02:27:47.716Z,13.91
2023-04-10T02:30:14.402Z,13.90
2023-04-10T02:32:42.023Z,13.89
2023-04-10T02:35:08.933Z,13.61
2023-04-10T02:37:36.155Z,13.63
2023-04-10T02:40:02.781Z,13.63
2023-04-10T02:42:29.380Z,13.85
2023-04-10T02:44:56.045Z,13.83
2023-04-10T02:47:23.897Z,13.69
2023-04-10T02:49:50.657Z,14.15
2023-04-10T02:52:17.948Z,13.84
2023-04-10T02:54:44.545Z,13.86
2023-04-10T02:57:11.153Z,14.07
2023-04-10T02:59:37.782Z,13.84
2023-04-10T03:02:04.515Z,14.55
2023-04-10T03:04:34.890Z,13.82
2023-04-10T03:07:01.821Z,13.88
2023-04-10T03:09:28.829Z,13.45
2023-04-10T03:11:55.477Z,13.99
2023-04-10T03:14:22.867Z,13.83
2023-04-10T03:16:50.451Z,13.78
2023-04-10T03:19:17.042Z,13.64
2023-04-10T03:21:43.619Z,14.36
2023-04-10T03:24:10.429Z,14.33
2023-04-10T03:26:37.062Z,13.81
2023-04-10T03:29:03.711Z,14.18
2023-04-10T03:31:30.509Z,13.82
2023-04-10T03:33:57.450Z,14.27
2023-04-10T03:36:24.304Z,14.23
2023-04-10T03:38:52.787Z,13.98
2023-04-10T03:41:19.392Z,13.88
2023-04-10T03:43:46.289Z,14.18
2023-04-10T03:46:12.910Z,13.76
2023-04-10T03:48:39.506Z,13.77
2023-04-10T03:51:06.480Z,14.16
2023-04-10T03:53:36.076Z,14.04
2023-04-10T03:56:03.653Z,14.18
2023-04-10T03:58:30.491Z,14.02
2023-04-10T04:00:57.436Z,13.93
2023-04-10T04:03:24.381Z,14.18
2023-04-10T04:05:52.217Z,13.70
2023-04-10T04:08:19.112Z,14.20
2023-04-10T04:10:45.710Z,14.34
2023-04-10T04:13:12.349Z,14.25
2023-04-10T04:15:39.127Z,14.07
2023-04-10T04:18:06.303Z,14.15
2023-04-10T04:20:32.978Z,14.20
2023-04-10T04:22:59.543Z,13.68
2023-04-10T04:25:26.387Z,14.61
2023-04-10T04:27:53.118Z,14.24
2023-04-10T04:30:19.714Z,14.18
2023-04-10T04:32:46.303Z,14.00
2023-04-10T04:35:12.985Z,14.17
2023-04-10T04:37:39.561Z,14.55
2023-04-10T04:40:06.685Z,14.46
2023-04-10T04:42:33.302Z,14.91
2023-04-10T04:44:59.878Z,14.35
2023-04-10T04:47:26.592Z,14.81
2023-04-10T04:49:53.198Z,14.91
2023-04-10T04:52:19.845Z,15.04
2023-04-10T04:54:47.050Z,14.65
2023-04-10T04:57:13.652Z,14.92
2023-04-10T04:59:40.260Z,15.39
2023-04-10T05:02:06.994Z,15.36
2023-04-10T05:04:33.709Z,15.40
2023-04-10T05:07:00.539Z,15.58
2023-04-10T05:09:27.211Z,15.80
2023-04-10T05:11:54.508Z,15.52
2023-04-10T05:14:22.262Z,15.39
2023-04-10T05:16:49.006Z,15.45
2023-04-10T05:19:15.637Z,15.82
2023-04-10T05:21:42.311Z,15.37
2023-04-10T05:24:09.417Z,15.34
2023-04-10T05:26:36.101Z,15.62
2023-04-10T05:29:02.778Z,15.64
2023-04-10T05:31:29.396Z,15.43
2023-04-10T05:33:56.059Z,14.99
2023-04-10T05:36:22.636Z,15.02
2023-04-10T05:38:49.288Z,15.10
2023-04-10T05:41:16.128Z,15.18
2023-04-10T05:43:42.873Z,14.92
2023-04-10T05:46:09.589Z,14.50
2023-04-10T05:48:36.216Z,15.13
2023-04-10T05:51:02.821Z,14.91
2023-04-10T05:53:32.786Z,14.12
2023-04-10T05:55:59.644Z,14.53
2023-04-10T05:58:27.086Z,14.39
2023-04-10T06:00:54.206Z,14.35
2023-04-10T06:03:21.012Z,14.37
2023-04-10T06:05:47.790Z,14.30
2023-04-10T06:08:14.440Z,14.23
2023-04-10T06:10:41.113Z,14.56
2023-04-10T06:13:11.022Z,14.48
2023-04-10T06:15:38.334Z,14.05
2023-04-10T06:18:05.296Z,14.11
2023-04-10T06:20:31.995Z,14.40
2023-04-10T06:22:59.440Z,14.40
2023-04-10T06:25:26.704Z,14.25
2023-04-10T06:27:53.463Z,14.12
2023-04-10T06:30:20.291Z,14.14
2023-04-10T06:32:46.973Z,14.50
2023-04-10T06:35:13.684Z,14.48
2023-04-10T06:37:40.279Z,14.11
2023-04-10T06:40:11.689Z,14.66
2023-04-10T06:42:38.350Z,14.21
2023-04-10T06:45:05.470Z,14.29
2023-04-10T06:47:32.291Z,14.00
2023-04-10T06:49:59.406Z,14.53
2023-04-10T06:52:26.486Z,14.12
2023-04-10T06:54:53.143Z,14.08
2023-04-10T06:57:19.958Z,13.88
2023-04-10T06:59:46.679Z,14.07
2023-04-10T07:02:13.412Z,13.31
2023-04-10T07:04:40.102Z,13.48
2023-04-10T07:07:09.911Z,13.07
2023-04-10T07:09:36.717Z,13.00
2023-04-10T07:12:03.671Z,13.20
2023-04-10T07:14:32.480Z,12.64
2023-04-10T07:16:59.079Z,13.10
2023-04-10T07:19:25.849Z,12.71
2023-04-10T07:21:52.723Z,13.07
2023-04-10T07:24:19.371Z,12.84
2023-04-10T07:26:46.607Z,12.75
2023-04-10T07:29:14.168Z,12.47
2023-04-10T07:31:41.142Z,12.66
2023-04-10T07:34:07.896Z,12.66
2023-04-10T07:36:35.543Z,12.69
2023-04-10T07:39:02.160Z,12.90
2023-04-10T07:41:28.864Z,13.09
2023-04-10T07:43:55.679Z,13.11
2023-04-10T07:46:22.541Z,13.03
2023-04-10T07:48:49.785Z,13.31
2023-04-10T07:51:16.448Z,13.50
2023-04-10T07:53:43.063Z,13.13
2023-04-10T07:56:16.090Z,13.40
2023-04-10T07:58:43.242Z,13.21
2023-04-10T08:01:09.825Z,13.45
2023-04-10T08:03:44.898Z,14.28
2023-04-10T08:06:12.421Z,14.04
2023-04-10T08:08:42.813Z,14.14
2023-04-10T08:11:24.810Z,13.93
2023-04-10T08:13:56.613Z,14.16
2023-04-10T08:16:25.337Z,14.00
2023-04-10T08:18:56.752Z,13.89
2023-04-10T08:21:24.922Z,14.32
2023-04-10T08:23:53.241Z,14.35
2023-04-10T08:26:21.282Z,14.22
2023-04-10T08:28:53.529Z,14.10
2023-04-10T08:31:22.442Z,14.17
2023-04-10T08:33:49.299Z,14.13
2023-04-10T08:36:18.992Z,14.69
2023-04-10T08:38:47.696Z,14.28
2023-04-10T08:41:18.584Z,13.84
2023-04-10T08:43:46.550Z,14.20
2023-04-10T08:46:14.712Z,14.26
2023-04-10T08:48:56.944Z,14.25
2023-04-10T08:51:29.372Z,14.72
2023-04-10T08:54:06.050Z,14.59
2023-04-10T08:56:34.895Z,14.97
2023-04-10T08:59:03.469Z,14.96
2023-04-10T09:01:31.716Z,15.18
2023-04-10T09:03:58.917Z,14.52
2023-04-10T09:06:26.145Z,15.57
2023-04-10T09:08:52.841Z,14.99
2023-04-10T09:11:19.452Z,14.94
2023-04-10T09:13:46.389Z,14.79
2023-04-10T09:16:14.768Z,14.90
2023-04-10T09:18:46.815Z,14.12
2023-04-10T09:21:16.476Z,13.96
2023-04-10T09:23:44.738Z,14.20
2023-04-10T09:26:46.703Z,15.09
2023-04-10T09:29:13.448Z,16.99
2023-04-10T09:31:40.322Z,17.67
2023-04-10T09:34:14.660Z,16.36
2023-04-10T09:36:43.387Z,15.65
2023-04-10T09:39:11.807Z,15.70
2023-04-10T09:41:56.405Z,16.05
2023-04-10T09:44:37.537Z,15.37
2023-04-10T09:47:22.812Z,16.12
2023-04-10T09:49:52.833Z,16.54
2023-04-10T09:52:21.912Z,15.33
2023-04-10T09:54:48.789Z,14.95
2023-04-10T09:57:19.195Z,15.77
2023-04-10T09:59:51.438Z,14.95
2023-04-10T10:02:23.680Z,14.48
2023-04-10T10:04:52.517Z,14.24
2023-04-10T10:07:21.252Z,14.05
2023-04-10T10:09:50.104Z,14.35
2023-04-10T10:12:26.463Z,14.46
2023-04-10T10:15:11.637Z,13.63
2023-04-10T10:18:20.049Z,13.77
2023-04-10T10:20:47.599Z,13.15
2023-04-10T10:23:15.973Z,13.62
2023-04-10T10:25:44.388Z,13.74
2023-04-10T10:28:13.478Z,13.31
2023-04-10T10:30:40.373Z,12.96
2023-04-10T10:33:07.722Z,12.69
2023-04-10T10:35:38.494Z,12.47
2023-04-10T10:38:05.860Z,13.06
2023-04-10T10:40:56.564Z,12.78
2023-04-10T10:43:26.141Z,12.46
2023-04-10T10:46:12.794Z,12.64
2023-04-10T10:48:39.543Z,12.58
2023-04-10T10:51:06.528Z,12.61
2023-04-10T10:53:40.474Z,12.55
2023-04-10T10:56:28.126Z,12.07
2023-04-10T10:58:59.551Z,12.31
2023-04-10T11:01:26.534Z,12.33
2023-04-10T11:03:53.308Z,12.21
2023-04-10T11:06:22.430Z,11.91
2023-04-10T11:08:52.748Z,11.77
2023-04-10T11:11:23.504Z,12.02
2023-04-10T11:13:50.806Z,11.90
2023-04-10T11:16:18.424Z,11.90
2023-04-10T11:18:45.276Z,11.74
2023-04-10T11:21:12.928Z,11.69
2023-04-10T11:23:59.556Z,12.16
2023-04-10T11:26:44.314Z,12.03
2023-04-10T11:29:19.748Z,11.69
2023-04-10T11:31:55.227Z,12.22
2023-04-10T11:34:22.115Z,11.70
2023-04-10T11:36:49.066Z,11.97
2023-04-10T11:39:20.564Z,12.26
2023-04-10T11:41:52.601Z,11.81
2023-04-10T11:44:39.017Z,11.79
2023-04-10T11:47:05.851Z,12.29
2023-04-10T11:49:40.187Z,11.96
2023-04-10T11:52:07.144Z,11.93
2023-04-10T11:54:33.965Z,11.62
2023-04-10T11:57:04.152Z,12.07
2023-04-10T11:59:32.665Z,11.80
2023-04-10T12:02:11.526Z,11.47
2023-04-10T12:04:38.538Z,11.35
2023-04-10T12:07:05.501Z,11.18
2023-04-10T12:09:32.148Z,11.57
2023-04-10T12:12:00.740Z,11.08
2023-04-10T12:14:33.592Z,10.80
2023-04-10T12:17:01.804Z,10.04
2023-04-10T12:19:29.712Z,10.12
2023-04-10T12:21:58.402Z,10.19
2023-04-10T12:24:46.682Z,9.72
2023-04-10T12:27:23.345Z,9.25
2023-04-10T12:29:53.110Z,8.88
2023-04-10T12:32:20.800Z,8.31
2023-04-10T12:34:52.045Z,7.99
2023-04-10T12:37:19.522Z,8.37
2023-04-10T12:39:46.219Z,8.89
2023-04-10T12:42:19.305Z,8.29
2023-04-10T12:45:00.435Z,7.99
2023-04-10T12:47:30.267Z,7.91
2023-04-10T12:50:06.401Z,7.50
2023-04-10T12:52:33.794Z,7.90
2023-04-10T12:55:18.218Z,7.67
2023-04-10T12:57:47.029Z,7.67
2023-04-10T13:00:18.969Z,7.03
2023-04-10T13:02:48.364Z,7.05
2023-04-10T13:05:15.633Z,6.93
2023-04-10T13:07:42.485Z,6.77
2023-04-10T13:10:09.519Z,6.70
2023-04-10T13:12:38.034Z,6.71
2023-04-10T13:15:07.382Z,6.76
2023-04-10T13:17:34.278Z,6.58
2023-04-10T13:20:00.973Z,6.60
2023-04-10T13:22:27.658Z,6.57
2023-04-10T13:24:54.386Z,6.66
2023-04-10T13:27:21.061Z,6.42
2023-04-10T13:29:48.285Z,6.35
2023-04-10T13:32:14.909Z,6.29
2023-04-10T13:34:41.574Z,6.53
2023-04-10T13:37:09.751Z,6.16
2023-04-10T13:39:36.452Z,6.25
2023-04-10T13:42:03.049Z,6.34
2023-04-10T13:44:29.741Z,6.67
2023-04-10T13:46:58.012Z,6.71
2023-04-10T13:49:24.788Z,6.93
2023-04-10T13:51:51.669Z,6.74
2023-04-10T13:54:18.295Z,6.98
2023-04-10T13:56:46.366Z,7.20
2023-04-10T13:59:14.012Z,7.09
2023-04-10T14:01:40.675Z,7.46
2023-04-10T14:04:07.837Z,7.40
2023-04-10T14:06:34.811Z,7.58
2023-04-10T14:09:01.534Z,7.41
2023-04-10T14:11:28.090Z,7.21
2023-04-10T14:13:54.721Z,7.43
2023-04-10T14:16:22.437Z,7.67
2023-04-10T14:18:49.126Z,7.56
2023-04-10T14:21:15.744Z,7.52
2023-04-10T14:23:42.975Z,7.44
2023-04-10T14:26:09.573Z,7.71
2023-04-10T14:28:36.379Z,7.64
2023-04-10T14:31:04.522Z,7.49
2023-04-10T14:33:31.466Z,7.44
2023-04-10T14:35:58.155Z,7.37
2023-04-10T14:38:24.868Z,7.25
2023-04-10T14:40:51.853Z,7.56
2023-04-10T14:43:19.421Z,7.22
2023-04-10T14:45:46.173Z,7.54
2023-04-10T14:48:13.305Z,7.79
2023-04-10T14:50:40.538Z,7.78
2023-04-10T14:53:09.654Z,7.98
2023-04-10T14:55:37.418Z,7.85
2023-04-10T14:58:04.513Z,7.77
2023-04-10T15:00:32.838Z,7.63
2023-04-10T15:03:01.043Z,7.35
2023-04-10T15:05:28.236Z,7.76
2023-04-10T15:07:55.160Z,7.43
2023-04-10T15:10:22.100Z,7.66
2023-04-10T15:12:48.934Z,7.72
2023-04-10T15:15:15.700Z,7.75
2023-04-10T15:17:42.427Z,8.18
2023-04-10T15:20:09.661Z,8.50
2023-04-10T15:22:36.287Z,8.28
2023-04-10T15:25:03.110Z,8.41
2023-04-10T15:27:29.842Z,8.48
2023-04-10T15:29:56.607Z,8.72
